sensor_id;sensor_type;location;lat;lon;timestamp;P1;durP1;ratioP1;P2;durP2;ratioP2
34711;SDS011;20941;42.408;25.634;2023-04-24T00:01:11;17.05;;;9.88;;
34711;SDS011;20941;42.408;25.634;2023-04-24T00:03:38;14.50;;;9.93;;
34711;SDS011;20941;42.408;25.634;2023-04-24T00:06:04;16.05;;;7.85;;
34711;SDS011;20941;42.408;25.634;2023-04-24T00:08:30;13.70;;;7.38;;
34711;SDS011;20941;42.408;25.634;2023-04-24T00:10:55;11.90;;;6.78;;
34711;SDS011;20941;42.408;25.634;2023-04-24T00:13:21;36.75;;;23.75;;
34711;SDS011;20941;42.408;25.634;2023-04-24T00:15:46;13.95;;;7.65;;
34711;SDS011;20941;42.408;25.634;2023-04-24T00:18:12;16.08;;;7.53;;
34711;SDS011;20941;42.408;25.634;2023-04-24T00:20:37;11.27;;;6.32;;
34711;SDS011;20941;42.408;25.634;2023-04-24T00:23:03;8.88;;;5.93;;
34711;SDS011;20941;42.408;25.634;2023-04-24T00:25:28;14.63;;;7.28;;
34711;SDS011;20941;42.408;25.634;2023-04-24T00:27:53;24.15;;;10.75;;
34711;SDS011;20941;42.408;25.634;2023-04-24T00:30:19;22.63;;;12.60;;
34711;SDS011;20941;42.408;25.634;2023-04-24T00:32:44;26.10;;;14.30;;
34711;SDS011;20941;42.408;25.634;2023-04-24T00:35:10;15.35;;;9.85;;
34711;SDS011;20941;42.408;25.634;2023-04-24T00:37:35;18.20;;;8.05;;
34711;SDS011;20941;42.408;25.634;2023-04-24T00:40:01;16.38;;;10.07;;
34711;SDS011;20941;42.408;25.634;2023-04-24T00:42:26;13.55;;;9.68;;
34711;SDS011;20941;42.408;25.634;2023-04-24T00:44:51;16.20;;;8.90;;
34711;SDS011;20941;42.408;25.634;2023-04-24T00:47:17;14.85;;;9.23;;
34711;SDS011;20941;42.408;25.634;2023-04-24T00:49:44;10.68;;;5.97;;
34711;SDS011;20941;42.408;25.634;2023-04-24T00:52:09;10.68;;;5.60;;
34711;SDS011;20941;42.408;25.634;2023-04-24T00:54:35;16.45;;;7.53;;
34711;SDS011;20941;42.408;25.634;2023-04-24T00:57:04;12.63;;;8.30;;
34711;SDS011;20941;42.408;25.634;2023-04-24T00:59:30;12.32;;;8.57;;
34711;SDS011;20941;42.408;25.634;2023-04-24T01:01:55;22.45;;;9.73;;
34711;SDS011;20941;42.408;25.634;2023-04-24T01:04:21;15.75;;;8.23;;
34711;SDS011;20941;42.408;25.634;2023-04-24T01:06:48;19.55;;;11.15;;
34711;SDS011;20941;42.408;25.634;2023-04-24T01:09:15;9.27;;;5.60;;
34711;SDS011;20941;42.408;25.634;2023-04-24T01:11:41;7.32;;;5.18;;
34711;SDS011;20941;42.408;25.634;2023-04-24T01:14:07;12.63;;;5.75;;
34711;SDS011;20941;42.408;25.634;2023-04-24T01:16:33;11.23;;;6.07;;
34711;SDS011;20941;42.408;25.634;2023-04-24T01:18:58;19.83;;;9.13;;
34711;SDS011;20941;42.408;25.634;2023-04-24T01:21:24;15.02;;;10.50;;
34711;SDS011;20941;42.408;25.634;2023-04-24T01:23:53;28.15;;;11.82;;
34711;SDS011;20941;42.408;25.634;2023-04-24T01:26:19;18.33;;;10.50;;
34711;SDS011;20941;42.408;25.634;2023-04-24T01:28:47;28.75;;;12.50;;
34711;SDS011;20941;42.408;25.634;2023-04-24T01:31:13;31.85;;;21.20;;
34711;SDS011;20941;42.408;25.634;2023-04-24T01:33:38;23.15;;;12.90;;
34711;SDS011;20941;42.408;25.634;2023-04-24T01:36:04;12.57;;;8.07;;
34711;SDS011;20941;42.408;25.634;2023-04-24T01:38:29;10.02;;;5.10;;
34711;SDS011;20941;42.408;25.634;2023-04-24T01:40:55;9.60;;;4.80;;
34711;SDS011;20941;42.408;25.634;2023-04-24T01:43:20;9.23;;;4.95;;
34711;SDS011;20941;42.408;25.634;2023-04-24T01:45:46;17.77;;;11.23;;
34711;SDS011;20941;42.408;25.634;2023-04-24T01:48:11;28.48;;;18.95;;
34711;SDS011;20941;42.408;25.634;2023-04-24T01:50:37;29.15;;;15.80;;
34711;SDS011;20941;42.408;25.634;2023-04-24T01:53:03;46.00;;;28.52;;
34711;SDS011;20941;42.408;25.634;2023-04-24T01:55:28;53.75;;;36.05;;
34711;SDS011;20941;42.408;25.634;2023-04-24T01:57:55;17.25;;;9.75;;
34711;SDS011;20941;42.408;25.634;2023-04-24T02:00:20;11.23;;;7.85;;
34711;SDS011;20941;42.408;25.634;2023-04-24T02:02:46;8.75;;;6.05;;
34711;SDS011;20941;42.408;25.634;2023-04-24T02:05:11;13.90;;;6.95;;
34711;SDS011;20941;42.408;25.634;2023-04-24T02:07:36;16.63;;;8.15;;
34711;SDS011;20941;42.408;25.634;2023-04-24T02:10:02;13.90;;;6.57;;
34711;SDS011;20941;42.408;25.634;2023-04-24T02:12:29;11.20;;;5.30;;
34711;SDS011;20941;42.408;25.634;2023-04-24T02:14:54;8.27;;;6.18;;
34711;SDS011;20941;42.408;25.634;2023-04-24T02:17:19;12.45;;;6.95;;
34711;SDS011;20941;42.408;25.634;2023-04-24T02:19:45;13.27;;;7.18;;
34711;SDS011;20941;42.408;25.634;2023-04-24T02:22:11;22.77;;;12.40;;
34711;SDS011;20941;42.408;25.634;2023-04-24T02:24:36;23.33;;;13.35;;
34711;SDS011;20941;42.408;25.634;2023-04-24T02:27:02;19.92;;;14.50;;
34711;SDS011;20941;42.408;25.634;2023-04-24T02:29:28;21.80;;;14.40;;
34711;SDS011;20941;42.408;25.634;2023-04-24T02:31:53;25.85;;;13.73;;
34711;SDS011;20941;42.408;25.634;2023-04-24T02:34:18;23.85;;;13.02;;
34711;SDS011;20941;42.408;25.634;2023-04-24T02:36:44;21.70;;;14.20;;
34711;SDS011;20941;42.408;25.634;2023-04-24T02:39:09;24.27;;;10.82;;
34711;SDS011;20941;42.408;25.634;2023-04-24T02:41:35;22.17;;;9.55;;
34711;SDS011;20941;42.408;25.634;2023-04-24T02:44:00;22.77;;;9.18;;
34711;SDS011;20941;42.408;25.634;2023-04-24T02:46:25;14.07;;;6.68;;
34711;SDS011;20941;42.408;25.634;2023-04-24T02:48:51;14.32;;;7.30;;
34711;SDS011;20941;42.408;25.634;2023-04-24T02:51:16;15.82;;;6.50;;
34711;SDS011;20941;42.408;25.634;2023-04-24T02:53:42;9.80;;;5.78;;
34711;SDS011;20941;42.408;25.634;2023-04-24T02:56:07;17.33;;;6.72;;
34711;SDS011;20941;42.408;25.634;2023-04-24T02:58:32;23.48;;;9.82;;
34711;SDS011;20941;42.408;25.634;2023-04-24T03:00:58;18.42;;;11.30;;
34711;SDS011;20941;42.408;25.634;2023-04-24T03:03:23;19.15;;;10.38;;
34711;SDS011;20941;42.408;25.634;2023-04-24T03:05:49;28.45;;;13.32;;
34711;SDS011;20941;42.408;25.634;2023-04-24T03:08:14;28.30;;;14.93;;
34711;SDS011;20941;42.408;25.634;2023-04-24T03:10:39;27.88;;;14.23;;
34711;SDS011;20941;42.408;25.634;2023-04-24T03:13:05;23.90;;;12.52;;
34711;SDS011;20941;42.408;25.634;2023-04-24T03:15:30;18.67;;;10.52;;
34711;SDS011;20941;42.408;25.634;2023-04-24T03:17:55;21.00;;;9.32;;
34711;SDS011;20941;42.408;25.634;2023-04-24T03:20:21;14.13;;;7.80;;
34711;SDS011;20941;42.408;25.634;2023-04-24T03:22:47;31.63;;;9.57;;
34711;SDS011;20941;42.408;25.634;2023-04-24T03:25:12;15.45;;;8.10;;
34711;SDS011;20941;42.408;25.634;2023-04-24T03:27:37;18.45;;;9.35;;
34711;SDS011;20941;42.408;25.634;2023-04-24T03:30:04;18.75;;;8.35;;
34711;SDS011;20941;42.408;25.634;2023-04-24T03:32:30;21.02;;;8.25;;
34711;SDS011;20941;42.408;25.634;2023-04-24T03:34:57;14.45;;;7.82;;
34711;SDS011;20941;42.408;25.634;2023-04-24T03:37:22;17.27;;;8.52;;
34711;SDS011;20941;42.408;25.634;2023-04-24T03:39:48;16.13;;;8.63;;
34711;SDS011;20941;42.408;25.634;2023-04-24T03:42:13;22.88;;;9.13;;
34711;SDS011;20941;42.408;25.634;2023-04-24T03:44:38;15.38;;;7.88;;
34711;SDS011;20941;42.408;25.634;2023-04-24T03:47:04;16.77;;;8.18;;
34711;SDS011;20941;42.408;25.634;2023-04-24T03:49:29;17.02;;;8.15;;
34711;SDS011;20941;42.408;25.634;2023-04-24T03:51:55;22.67;;;9.52;;
34711;SDS011;20941;42.408;25.634;2023-04-24T03:54:20;23.42;;;10.27;;
34711;SDS011;20941;42.408;25.634;2023-04-24T03:56:45;19.58;;;10.48;;
34711;SDS011;20941;42.408;25.634;2023-04-24T03:59:11;25.83;;;12.10;;
34711;SDS011;20941;42.408;25.634;2023-04-24T04:01:36;23.20;;;12.73;;
34711;SDS011;20941;42.408;25.634;2023-04-24T04:04:08;38.97;;;18.05;;
34711;SDS011;20941;42.408;25.634;2023-04-24T04:06:33;37.78;;;18.98;;
34711;SDS011;20941;42.408;25.634;2023-04-24T04:08:59;31.65;;;16.25;;
34711;SDS011;20941;42.408;25.634;2023-04-24T04:11:25;38.67;;;14.27;;
34711;SDS011;20941;42.408;25.634;2023-04-24T04:13:51;38.03;;;13.43;;
34711;SDS011;20941;42.408;25.634;2023-04-24T04:16:16;48.45;;;14.90;;
34711;SDS011;20941;42.408;25.634;2023-04-24T04:18:42;30.02;;;12.90;;
34711;SDS011;20941;42.408;25.634;2023-04-24T04:21:08;27.33;;;10.90;;
34711;SDS011;20941;42.408;25.634;2023-04-24T04:23:33;31.30;;;11.63;;
34711;SDS011;20941;42.408;25.634;2023-04-24T04:25:58;37.60;;;13.57;;
34711;SDS011;20941;42.408;25.634;2023-04-24T04:28:24;25.35;;;12.68;;
34711;SDS011;20941;42.408;25.634;2023-04-24T04:30:50;25.73;;;11.82;;
34711;SDS011;20941;42.408;25.634;2023-04-24T04:33:19;25.95;;;11.52;;
34711;SDS011;20941;42.408;25.634;2023-04-24T04:35:44;29.67;;;12.35;;
34711;SDS011;20941;42.408;25.634;2023-04-24T04:38:13;29.25;;;11.80;;
34711;SDS011;20941;42.408;25.634;2023-04-24T04:40:40;26.90;;;10.93;;
34711;SDS011;20941;42.408;25.634;2023-04-24T04:43:05;32.47;;;14.20;;
34711;SDS011;20941;42.408;25.634;2023-04-24T04:45:31;34.00;;;13.15;;
34711;SDS011;20941;42.408;25.634;2023-04-24T04:47:57;31.23;;;12.65;;
34711;SDS011;20941;42.408;25.634;2023-04-24T04:50:23;33.55;;;11.60;;
34711;SDS011;20941;42.408;25.634;2023-04-24T04:52:48;23.75;;;11.23;;
34711;SDS011;20941;42.408;25.634;2023-04-24T04:55:13;24.38;;;11.15;;
34711;SDS011;20941;42.408;25.634;2023-04-24T04:57:39;25.25;;;10.88;;
34711;SDS011;20941;42.408;25.634;2023-04-24T05:00:05;25.90;;;10.52;;
34711;SDS011;20941;42.408;25.634;2023-04-24T05:02:32;26.15;;;11.38;;
34711;SDS011;20941;42.408;25.634;2023-04-24T05:04:57;33.50;;;14.45;;
34711;SDS011;20941;42.408;25.634;2023-04-24T05:07:22;42.10;;;16.45;;
34711;SDS011;20941;42.408;25.634;2023-04-24T05:09:48;29.90;;;14.80;;
34711;SDS011;20941;42.408;25.634;2023-04-24T05:12:13;31.48;;;12.10;;
34711;SDS011;20941;42.408;25.634;2023-04-24T05:14:39;35.72;;;12.82;;
34711;SDS011;20941;42.408;25.634;2023-04-24T05:17:04;25.40;;;12.00;;
34711;SDS011;20941;42.408;25.634;2023-04-24T05:19:30;33.38;;;13.63;;
34711;SDS011;20941;42.408;25.634;2023-04-24T05:21:57;28.45;;;12.85;;
34711;SDS011;20941;42.408;25.634;2023-04-24T05:24:23;30.20;;;10.30;;
34711;SDS011;20941;42.408;25.634;2023-04-24T05:26:48;25.10;;;10.50;;
34711;SDS011;20941;42.408;25.634;2023-04-24T05:29:14;33.13;;;11.10;;
34711;SDS011;20941;42.408;25.634;2023-04-24T05:31:39;18.52;;;9.02;;
34711;SDS011;20941;42.408;25.634;2023-04-24T05:34:05;19.92;;;10.25;;
34711;SDS011;20941;42.408;25.634;2023-04-24T05:36:30;19.15;;;9.95;;
34711;SDS011;20941;42.408;25.634;2023-04-24T05:38:56;31.63;;;10.55;;
34711;SDS011;20941;42.408;25.634;2023-04-24T05:41:21;20.98;;;8.85;;
34711;SDS011;20941;42.408;25.634;2023-04-24T05:43:47;22.40;;;10.50;;
34711;SDS011;20941;42.408;25.634;2023-04-24T05:46:12;22.27;;;11.07;;
34711;SDS011;20941;42.408;25.634;2023-04-24T05:48:38;20.60;;;9.57;;
34711;SDS011;20941;42.408;25.634;2023-04-24T05:51:03;22.02;;;9.27;;
34711;SDS011;20941;42.408;25.634;2023-04-24T05:53:28;19.15;;;9.02;;
34711;SDS011;20941;42.408;25.634;2023-04-24T05:55:54;18.27;;;9.68;;
34711;SDS011;20941;42.408;25.634;2023-04-24T05:58:19;13.55;;;8.27;;
34711;SDS011;20941;42.408;25.634;2023-04-24T06:00:44;15.50;;;7.63;;
34711;SDS011;20941;42.408;25.634;2023-04-24T06:03:11;19.52;;;8.00;;
34711;SDS011;20941;42.408;25.634;2023-04-24T06:05:37;12.60;;;7.28;;
34711;SDS011;20941;42.408;25.634;2023-04-24T06:08:02;17.42;;;8.57;;
34711;SDS011;20941;42.408;25.634;2023-04-24T06:10:27;24.27;;;8.75;;
34711;SDS011;20941;42.408;25.634;2023-04-24T06:12:53;28.75;;;8.70;;
34711;SDS011;20941;42.408;25.634;2023-04-24T06:15:21;15.52;;;8.00;;
34711;SDS011;20941;42.408;25.634;2023-04-24T06:17:47;14.40;;;6.88;;
34711;SDS011;20941;42.408;25.634;2023-04-24T06:20:12;15.73;;;7.80;;
34711;SDS011;20941;42.408;25.634;2023-04-24T06:22:37;18.77;;;9.02;;
34711;SDS011;20941;42.408;25.634;2023-04-24T06:25:05;21.80;;;8.32;;
34711;SDS011;20941;42.408;25.634;2023-04-24T06:27:30;13.77;;;6.93;;
34711;SDS011;20941;42.408;25.634;2023-04-24T06:29:55;14.98;;;7.60;;
34711;SDS011;20941;42.408;25.634;2023-04-24T06:32:22;18.00;;;8.23;;
34711;SDS011;20941;42.408;25.634;2023-04-24T06:34:47;13.25;;;7.65;;
34711;SDS011;20941;42.408;25.634;2023-04-24T06:37:13;20.02;;;8.10;;
34711;SDS011;20941;42.408;25.634;2023-04-24T06:39:39;13.90;;;7.45;;
34711;SDS011;20941;42.408;25.634;2023-04-24T06:42:04;17.45;;;8.38;;
34711;SDS011;20941;42.408;25.634;2023-04-24T06:44:30;15.38;;;7.57;;
34711;SDS011;20941;42.408;25.634;2023-04-24T06:46:55;14.52;;;7.30;;
34711;SDS011;20941;42.408;25.634;2023-04-24T06:49:20;17.40;;;7.45;;
34711;SDS011;20941;42.408;25.634;2023-04-24T06:51:46;23.52;;;8.88;;
34711;SDS011;20941;42.408;25.634;2023-04-24T06:54:11;26.00;;;7.63;;
34711;SDS011;20941;42.408;25.634;2023-04-24T06:56:37;14.73;;;7.13;;
34711;SDS011;20941;42.408;25.634;2023-04-24T06:59:02;14.85;;;6.80;;
34711;SDS011;20941;42.408;25.634;2023-04-24T07:01:27;13.00;;;6.13;;
34711;SDS011;20941;42.408;25.634;2023-04-24T07:03:53;15.93;;;6.78;;
34711;SDS011;20941;42.408;25.634;2023-04-24T07:06:18;15.15;;;6.10;;
34711;SDS011;20941;42.408;25.634;2023-04-24T07:08:46;11.23;;;6.30;;
34711;SDS011;20941;42.408;25.634;2023-04-24T07:11:12;13.30;;;6.03;;
34711;SDS011;20941;42.408;25.634;2023-04-24T07:13:37;16.23;;;5.75;;
34711;SDS011;20941;42.408;25.634;2023-04-24T07:16:06;12.05;;;5.28;;
34711;SDS011;20941;42.408;25.634;2023-04-24T07:18:32;9.80;;;5.25;;
34711;SDS011;20941;42.408;25.634;2023-04-24T07:20:58;13.95;;;6.05;;
34711;SDS011;20941;42.408;25.634;2023-04-24T07:23:23;10.77;;;5.80;;
34711;SDS011;20941;42.408;25.634;2023-04-24T07:25:48;14.18;;;6.38;;
34711;SDS011;20941;42.408;25.634;2023-04-24T07:28:14;14.57;;;5.82;;
34711;SDS011;20941;42.408;25.634;2023-04-24T07:30:39;12.65;;;5.80;;
34711;SDS011;20941;42.408;25.634;2023-04-24T07:33:05;17.70;;;6.32;;
34711;SDS011;20941;42.408;25.634;2023-04-24T07:35:32;38.17;;;9.57;;
34711;SDS011;20941;42.408;25.634;2023-04-24T07:37:58;7.95;;;5.68;;
34711;SDS011;20941;42.408;25.634;2023-04-24T07:40:23;11.35;;;5.97;;
34711;SDS011;20941;42.408;25.634;2023-04-24T07:42:48;14.20;;;7.07;;
34711;SDS011;20941;42.408;25.634;2023-04-24T07:45:14;13.10;;;5.97;;
34711;SDS011;20941;42.408;25.634;2023-04-24T07:47:43;17.08;;;6.10;;
34711;SDS011;20941;42.408;25.634;2023-04-24T07:50:10;15.73;;;5.88;;
34711;SDS011;20941;42.408;25.634;2023-04-24T07:52:36;14.90;;;5.85;;
34711;SDS011;20941;42.408;25.634;2023-04-24T07:55:01;9.63;;;4.75;;
34711;SDS011;20941;42.408;25.634;2023-04-24T07:57:30;19.63;;;6.72;;
34711;SDS011;20941;42.408;25.634;2023-04-24T07:59:55;35.72;;;7.55;;
34711;SDS011;20941;42.408;25.634;2023-04-24T08:02:21;14.98;;;5.63;;
34711;SDS011;20941;42.408;25.634;2023-04-24T08:04:51;12.13;;;5.75;;
34711;SDS011;20941;42.408;25.634;2023-04-24T08:07:16;19.33;;;6.55;;
34711;SDS011;20941;42.408;25.634;2023-04-24T08:09:42;17.88;;;8.23;;
34711;SDS011;20941;42.408;25.634;2023-04-24T08:12:07;13.77;;;6.43;;
34711;SDS011;20941;42.408;25.634;2023-04-24T08:14:32;22.90;;;7.30;;
34711;SDS011;20941;42.408;25.634;2023-04-24T08:16:58;9.13;;;5.75;;
34711;SDS011;20941;42.408;25.634;2023-04-24T08:19:25;12.38;;;6.03;;
34711;SDS011;20941;42.408;25.634;2023-04-24T08:21:51;13.63;;;6.55;;
34711;SDS011;20941;42.408;25.634;2023-04-24T08:24:16;15.38;;;6.55;;
34711;SDS011;20941;42.408;25.634;2023-04-24T08:26:42;8.98;;;5.75;;
34711;SDS011;20941;42.408;25.634;2023-04-24T08:29:07;11.07;;;5.97;;
34711;SDS011;20941;42.408;25.634;2023-04-24T08:31:33;15.10;;;6.05;;
34711;SDS011;20941;42.408;25.634;2023-04-24T08:33:58;17.70;;;6.93;;
34711;SDS011;20941;42.408;25.634;2023-04-24T08:36:25;14.75;;;7.28;;
34711;SDS011;20941;42.408;25.634;2023-04-24T08:38:51;12.82;;;6.10;;
34711;SDS011;20941;42.408;25.634;2023-04-24T08:41:16;13.43;;;6.20;;
34711;SDS011;20941;42.408;25.634;2023-04-24T08:43:43;13.90;;;6.80;;
34711;SDS011;20941;42.408;25.634;2023-04-24T08:46:08;18.63;;;6.10;;
34711;SDS011;20941;42.408;25.634;2023-04-24T08:48:35;12.00;;;5.68;;
34711;SDS011;20941;42.408;25.634;2023-04-24T08:51:01;10.05;;;6.00;;
34711;SDS011;20941;42.408;25.634;2023-04-24T08:53:27;10.45;;;6.10;;
34711;SDS011;20941;42.408;25.634;2023-04-24T08:55:54;13.30;;;6.07;;
34711;SDS011;20941;42.408;25.634;2023-04-24T08:58:19;17.27;;;6.65;;
34711;SDS011;20941;42.408;25.634;2023-04-24T09:00:45;15.55;;;6.82;;
34711;SDS011;20941;42.408;25.634;2023-04-24T09:03:15;13.85;;;5.88;;
34711;SDS011;20941;42.408;25.634;2023-04-24T09:05:42;14.90;;;6.68;;
34711;SDS011;20941;42.408;25.634;2023-04-24T09:08:10;12.98;;;6.53;;
34711;SDS011;20941;42.408;25.634;2023-04-24T09:10:38;14.45;;;6.18;;
34711;SDS011;20941;42.408;25.634;2023-04-24T09:13:04;18.88;;;6.75;;
34711;SDS011;20941;42.408;25.634;2023-04-24T09:15:29;12.85;;;6.53;;
34711;SDS011;20941;42.408;25.634;2023-04-24T09:17:55;16.15;;;6.75;;
34711;SDS011;20941;42.408;25.634;2023-04-24T09:20:21;11.85;;;6.47;;
34711;SDS011;20941;42.408;25.634;2023-04-24T09:22:46;10.45;;;6.05;;
34711;SDS011;20941;42.408;25.634;2023-04-24T09:25:12;18.38;;;6.75;;
34711;SDS011;20941;42.408;25.634;2023-04-24T09:27:41;7.95;;;5.78;;
34711;SDS011;20941;42.408;25.634;2023-04-24T09:30:06;17.80;;;6.25;;
34711;SDS011;20941;42.408;25.634;2023-04-24T09:32:33;14.85;;;6.03;;
34711;SDS011;20941;42.408;25.634;2023-04-24T09:35:05;12.32;;;6.22;;
34711;SDS011;20941;42.408;25.634;2023-04-24T09:37:34;18.17;;;6.50;;
34711;SDS011;20941;42.408;25.634;2023-04-24T09:40:13;9.00;;;6.15;;
34711;SDS011;20941;42.408;25.634;2023-04-24T09:42:39;9.48;;;6.20;;
34711;SDS011;20941;42.408;25.634;2023-04-24T09:45:08;9.88;;;7.10;;
34711;SDS011;20941;42.408;25.634;2023-04-24T09:47:36;10.40;;;6.32;;
34711;SDS011;20941;42.408;25.634;2023-04-24T09:50:08;13.60;;;7.55;;
34711;SDS011;20941;42.408;25.634;2023-04-24T09:52:34;17.92;;;6.75;;
34711;SDS011;20941;42.408;25.634;2023-04-24T09:55:00;14.57;;;6.45;;
34711;SDS011;20941;42.408;25.634;2023-04-24T09:57:26;8.25;;;5.38;;
34711;SDS011;20941;42.408;25.634;2023-04-24T09:59:53;14.35;;;5.38;;
34711;SDS011;20941;42.408;25.634;2023-04-24T10:02:18;7.68;;;5.00;;
34711;SDS011;20941;42.408;25.634;2023-04-24T10:04:53;10.18;;;5.80;;
34711;SDS011;20941;42.408;25.634;2023-04-24T10:07:20;13.77;;;5.50;;
34711;SDS011;20941;42.408;25.634;2023-04-24T10:09:45;13.50;;;6.15;;
34711;SDS011;20941;42.408;25.634;2023-04-24T10:12:11;10.93;;;5.70;;
34711;SDS011;20941;42.408;25.634;2023-04-24T10:14:37;9.48;;;5.70;;
34711;SDS011;20941;42.408;25.634;2023-04-24T10:17:03;15.15;;;5.90;;
34711;SDS011;20941;42.408;25.634;2023-04-24T10:19:29;12.23;;;6.22;;
34711;SDS011;20941;42.408;25.634;2023-04-24T10:21:54;9.82;;;6.32;;
34711;SDS011;20941;42.408;25.634;2023-04-24T10:24:21;10.73;;;6.00;;
34711;SDS011;20941;42.408;25.634;2023-04-24T10:26:46;11.70;;;6.35;;
34711;SDS011;20941;42.408;25.634;2023-04-24T10:29:14;7.68;;;5.13;;
34711;SDS011;20941;42.408;25.634;2023-04-24T10:31:40;9.23;;;6.07;;
34711;SDS011;20941;42.408;25.634;2023-04-24T10:34:06;9.02;;;5.30;;
34711;SDS011;20941;42.408;25.634;2023-04-24T10:36:35;8.48;;;5.47;;
34711;SDS011;20941;42.408;25.634;2023-04-24T10:39:02;8.48;;;5.38;;
34711;SDS011;20941;42.408;25.634;2023-04-24T10:41:28;9.55;;;6.03;;
34711;SDS011;20941;42.408;25.634;2023-04-24T10:44:07;9.95;;;5.85;;
34711;SDS011;20941;42.408;25.634;2023-04-24T10:46:33;11.20;;;5.68;;
34711;SDS011;20941;42.408;25.634;2023-04-24T10:48:59;9.30;;;5.57;;
34711;SDS011;20941;42.408;25.634;2023-04-24T10:51:26;7.57;;;5.45;;
34711;SDS011;20941;42.408;25.634;2023-04-24T10:56:52;11.50;;;5.10;;
34711;SDS011;20941;42.408;25.634;2023-04-24T10:59:27;10.48;;;5.47;;
34711;SDS011;20941;42.408;25.634;2023-04-24T11:01:53;7.82;;;5.45;;
34711;SDS011;20941;42.408;25.634;2023-04-24T11:04:28;11.35;;;4.75;;
34711;SDS011;20941;42.408;25.634;2023-04-24T11:06:54;18.27;;;5.60;;
34711;SDS011;20941;42.408;25.634;2023-04-24T11:09:20;12.02;;;5.10;;
34711;SDS011;20941;42.408;25.634;2023-04-24T11:11:46;6.20;;;4.75;;
34711;SDS011;20941;42.408;25.634;2023-04-24T11:14:14;6.22;;;4.70;;
34711;SDS011;20941;42.408;25.634;2023-04-24T11:16:44;14.85;;;4.95;;
34711;SDS011;20941;42.408;25.634;2023-04-24T11:19:21;22.08;;;8.00;;
34711;SDS011;20941;42.408;25.634;2023-04-24T11:21:54;6.43;;;5.00;;
34711;SDS011;20941;42.408;25.634;2023-04-24T11:26:55;11.07;;;5.13;;
34711;SDS011;20941;42.408;25.634;2023-04-24T11:29:22;7.88;;;4.75;;
34711;SDS011;20941;42.408;25.634;2023-04-24T11:31:47;6.45;;;4.95;;
34711;SDS011;20941;42.408;25.634;2023-04-24T11:34:15;12.07;;;5.40;;
34711;SDS011;20941;42.408;25.634;2023-04-24T11:36:47;7.72;;;5.30;;
34711;SDS011;20941;42.408;25.634;2023-04-24T11:39:13;12.38;;;4.93;;
34711;SDS011;20941;42.408;25.634;2023-04-24T11:41:38;7.95;;;5.25;;
34711;SDS011;20941;42.408;25.634;2023-04-24T11:44:06;14.75;;;6.57;;
34711;SDS011;20941;42.408;25.634;2023-04-24T11:46:32;12.27;;;5.53;;
34711;SDS011;20941;42.408;25.634;2023-04-24T11:48:58;6.40;;;4.80;;
34711;SDS011;20941;42.408;25.634;2023-04-24T11:51:24;6.78;;;4.70;;
34711;SDS011;20941;42.408;25.634;2023-04-24T11:53:50;9.55;;;5.10;;
34711;SDS011;20941;42.408;25.634;2023-04-24T11:56:19;6.60;;;4.93;;
34711;SDS011;20941;42.408;25.634;2023-04-24T11:58:45;7.75;;;5.13;;
34711;SDS011;20941;42.408;25.634;2023-04-24T12:01:10;9.48;;;5.00;;
34711;SDS011;20941;42.408;25.634;2023-04-24T12:03:36;7.13;;;5.13;;
34711;SDS011;20941;42.408;25.634;2023-04-24T12:06:05;9.02;;;5.30;;
34711;SDS011;20941;42.408;25.634;2023-04-24T12:08:31;10.23;;;4.88;;
34711;SDS011;20941;42.408;25.634;2023-04-24T12:10:57;9.38;;;5.40;;
34711;SDS011;20941;42.408;25.634;2023-04-24T12:13:25;5.45;;;4.75;;
34711;SDS011;20941;42.408;25.634;2023-04-24T12:15:50;6.38;;;5.72;;
34711;SDS011;20941;42.408;25.634;2023-04-24T12:18:16;6.30;;;5.07;;
34711;SDS011;20941;42.408;25.634;2023-04-24T12:20:44;9.13;;;5.68;;
34711;SDS011;20941;42.408;25.634;2023-04-24T12:23:09;9.60;;;5.28;;
34711;SDS011;20941;42.408;25.634;2023-04-24T12:25:35;10.95;;;5.78;;
34711;SDS011;20941;42.408;25.634;2023-04-24T12:30:29;5.40;;;4.50;;
34711;SDS011;20941;42.408;25.634;2023-04-24T12:32:57;7.40;;;4.72;;
34711;SDS011;20941;42.408;25.634;2023-04-24T12:35:25;6.07;;;5.10;;
34711;SDS011;20941;42.408;25.634;2023-04-24T12:37:51;8.00;;;4.82;;
34711;SDS011;20941;42.408;25.634;2023-04-24T12:40:16;5.03;;;4.38;;
34711;SDS011;20941;42.408;25.634;2023-04-24T12:42:43;14.48;;;5.30;;
34711;SDS011;20941;42.408;25.634;2023-04-24T12:45:10;6.97;;;4.82;;
34711;SDS011;20941;42.408;25.634;2023-04-24T12:47:37;13.70;;;5.32;;
34711;SDS011;20941;42.408;25.634;2023-04-24T12:50:03;15.52;;;5.47;;
34711;SDS011;20941;42.408;25.634;2023-04-24T12:52:29;12.20;;;5.43;;
34711;SDS011;20941;42.408;25.634;2023-04-24T12:54:55;13.75;;;5.07;;
34711;SDS011;20941;42.408;25.634;2023-04-24T12:57:24;5.63;;;4.57;;
34711;SDS011;20941;42.408;25.634;2023-04-24T12:59:49;6.55;;;4.63;;
34711;SDS011;20941;42.408;25.634;2023-04-24T13:02:16;5.10;;;4.40;;
34711;SDS011;20941;42.408;25.634;2023-04-24T13:04:47;10.43;;;4.90;;
34711;SDS011;20941;42.408;25.634;2023-04-24T13:07:13;6.40;;;4.95;;
34711;SDS011;20941;42.408;25.634;2023-04-24T13:09:39;12.38;;;6.05;;
34711;SDS011;20941;42.408;25.634;2023-04-24T13:12:05;5.97;;;5.18;;
34711;SDS011;20941;42.408;25.634;2023-04-24T13:14:33;8.30;;;5.00;;
34711;SDS011;20941;42.408;25.634;2023-04-24T13:16:58;6.40;;;4.70;;
34711;SDS011;20941;42.408;25.634;2023-04-24T13:19:27;6.30;;;4.80;;
34711;SDS011;20941;42.408;25.634;2023-04-24T13:21:53;19.58;;;5.30;;
34711;SDS011;20941;42.408;25.634;2023-04-24T13:24:20;10.05;;;4.13;;
34711;SDS011;20941;42.408;25.634;2023-04-24T13:26:45;9.60;;;4.55;;
34711;SDS011;20941;42.408;25.634;2023-04-24T13:29:10;6.50;;;3.97;;
34711;SDS011;20941;42.408;25.634;2023-04-24T13:31:37;9.07;;;5.68;;
34711;SDS011;20941;42.408;25.634;2023-04-24T13:34:04;9.68;;;4.43;;
34711;SDS011;20941;42.408;25.634;2023-04-24T13:36:29;17.45;;;5.97;;
34711;SDS011;20941;42.408;25.634;2023-04-24T13:38:55;6.47;;;4.30;;
34711;SDS011;20941;42.408;25.634;2023-04-24T13:41:20;9.68;;;5.00;;
34711;SDS011;20941;42.408;25.634;2023-04-24T13:43:46;8.68;;;4.43;;
34711;SDS011;20941;42.408;25.634;2023-04-24T13:46:11;15.35;;;4.65;;
34711;SDS011;20941;42.408;25.634;2023-04-24T13:48:36;14.77;;;4.78;;
34711;SDS011;20941;42.408;25.634;2023-04-24T13:51:02;9.77;;;4.13;;
34711;SDS011;20941;42.408;25.634;2023-04-24T13:53:27;5.88;;;4.28;;
34711;SDS011;20941;42.408;25.634;2023-04-24T13:55:52;11.38;;;4.70;;
34711;SDS011;20941;42.408;25.634;2023-04-24T13:58:18;12.90;;;5.45;;
34711;SDS011;20941;42.408;25.634;2023-04-24T14:00:43;13.82;;;5.88;;
34711;SDS011;20941;42.408;25.634;2023-04-24T14:03:08;13.63;;;4.75;;
34711;SDS011;20941;42.408;25.634;2023-04-24T14:05:34;10.13;;;4.00;;
34711;SDS011;20941;42.408;25.634;2023-04-24T14:07:59;11.32;;;5.05;;
34711;SDS011;20941;42.408;25.634;2023-04-24T14:10:24;11.95;;;4.35;;
34711;SDS011;20941;42.408;25.634;2023-04-24T14:12:52;10.60;;;3.83;;
34711;SDS011;20941;42.408;25.634;2023-04-24T14:15:18;5.78;;;3.60;;
34711;SDS011;20941;42.408;25.634;2023-04-24T14:17:43;8.35;;;4.15;;
34711;SDS011;20941;42.408;25.634;2023-04-24T14:20:08;10.40;;;4.43;;
34711;SDS011;20941;42.408;25.634;2023-04-24T14:22:34;6.20;;;3.60;;